Time;durP1;ratioP1;P1;durP2;ratioP2;P2;SDS_P1;SDS_P2;PMS_P1;PMS_P2;Temp;Humidity;BMP_temperature;BMP_pressure;BME280_temperature;BME280_humidity;BME280_pressure;Samples;Min_cycle;Max_cycle;Signal;HPM_P1;HPM_P2
2023/07/02 00:00:19;;;;;;;0.40;0.20;;;;;;;17.53;90.91;99547.25;5073733;28;20477;-49
2023/07/02 00:02:45;;;;;;;0.40;0.20;;;;;;;17.33;91.27;99545.09;5074882;28;20493;-49
2023/07/02 00:05:12;;;;;;;0.40;0.20;;;;;;;16.72;92.94;99542.03;5074779;28;20461;-50
2023/07/02 00:07:38;;;;;;;0.40;0.20;;;;;;;16.65;93.41;99548.72;5074204;28;20575;-49
2023/07/02 00:10:05;;;;;;;0.43;0.20;;;;;;;16.04;94.53;99536.56;5074665;28;20501;-50
2023/07/02 00:12:32;;;;;;;0.50;0.20;;;;;;;15.91;96.09;99536.50;5073650;28;20495;-49
2023/07/02 00:14:58;;;;;;;0.43;0.20;;;;;;;16.04;95.37;99543.75;5074717;28;20466;-49
2023/07/02 00:17:25;;;;;;;0.50;0.20;;;;;;;15.96;95.50;99541.56;5073702;28;20468;-50
2023/07/02 00:19:51;;;;;;;0.40;0.20;;;;;;;16.06;95.33;99545.38;5074365;28;20509;-49
2023/07/02 00:22:19;;;;;;;0.50;0.20;;;;;;;15.92;95.39;99542.72;5074284;28;20466;-49
2023/07/02 00:24:46;;;;;;;0.40;0.20;;;;;;;15.86;95.46;99548.44;5074316;28;21033;-49
2023/07/02 00:27:13;;;;;;;0.50;0.20;;;;;;;15.87;95.54;99544.78;5072913;28;20488;-49
2023/07/02 00:29:39;;;;;;;0.40;0.20;;;;;;;15.78;95.71;99543.56;5063375;28;20631;-49
2023/07/02 00:32:06;;;;;;;0.40;0.20;;;;;;;15.89;95.25;99548.22;5069366;28;20520;-49
2023/07/02 00:34:32;;;;;;;0.40;0.23;;;;;;;15.67;95.12;99544.22;5069697;28;20467;-49
2023/07/02 00:36:58;;;;;;;0.40;0.20;;;;;;;15.67;94.77;99544.22;5073511;28;20480;-49
2023/07/02 00:39:25;;;;;;;0.40;0.20;;;;;;;15.09;96.58;99552.19;5073561;28;20482;-49
2023/07/02 00:41:51;;;;;;;0.50;0.20;;;;;;;15.23;96.50;99549.56;5074093;28;20466;-49
2023/07/02 00:44:18;;;;;;;0.40;0.20;;;;;;;15.30;95.77;99563.44;5073936;28;20481;-50
2023/07/02 00:46:46;;;;;;;0.50;0.20;;;;;;;15.21;95.88;99558.63;5073770;28;20977;-49
2023/07/02 00:49:12;;;;;;;0.47;0.20;;;;;;;15.03;95.60;99555.22;5073772;28;20494;-49
2023/07/02 00:51:39;;;;;;;0.50;0.20;;;;;;;14.75;97.24;99558.63;5073190;28;20860;-49
2023/07/02 00:54:05;;;;;;;0.40;0.20;;;;;;;14.87;97.64;99559.75;5074049;28;20506;-49
2023/07/02 00:56:32;;;;;;;0.40;0.20;;;;;;;14.95;95.76;99561.03;5074175;28;20461;-51
2023/07/02 00:58:58;;;;;;;0.40;0.20;;;;;;;14.95;96.44;99554.81;5073726;28;20528;-51
2023/07/02 01:01:31;;;;;;;0.40;0.20;;;;;;;15.03;96.17;99561.44;5073409;28;20466;-51
2023/07/02 01:04:03;;;;;;;0.40;0.20;;;;;;;15.03;95.92;99569.47;5073568;28;20900;-51
2023/07/02 01:06:32;;;;;;;0.40;0.20;;;;;;;15.13;95.27;99555.53;5071314;28;20500;-51
2023/07/02 01:09:00;;;;;;;0.40;0.20;;;;;;;15.06;95.03;99561.25;5073609;28;20473;-52
2023/07/02 01:11:39;;;;;;;0.40;0.20;;;;;;;14.98;95.46;99565.34;5072809;28;20489;-51
2023/07/02 01:14:12;;;;;;;0.40;0.20;;;;;;;14.98;95.24;99565.34;5067247;28;20824;-50
2023/07/02 01:16:43;;;;;;;0.40;0.20;;;;;;;14.78;95.85;99572.69;5071220;28;20493;-52
2023/07/02 01:19:24;;;;;;;0.40;0.20;;;;;;;14.88;95.49;99573.03;5073267;28;20564;-51
2023/07/02 01:21:50;;;;;;;0.40;0.20;;;;;;;14.63;94.74;99576.25;5073539;28;20496;-51
2023/07/02 01:24:17;;;;;;;0.40;0.20;;;;;;;14.66;94.18;99577.88;5073355;28;20466;-51
2023/07/02 01:26:45;;;;;;;0.40;0.20;;;;;;;14.52;95.53;99570.63;5073102;28;20499;-51
2023/07/02 01:29:19;;;;;;;0.40;0.20;;;;;;;15.06;94.29;99569.28;5072946;28;20525;-52
2023/07/02 01:31:46;;;;;;;0.40;0.20;;;;;;;15.51;91.51;99572.88;5070434;28;20470;-52
2023/07/02 01:34:14;;;;;;;0.40;0.20;;;;;;;15.73;90.33;99569.75;5069156;28;20489;-52
2023/07/02 01:36:41;;;;;;;0.40;0.20;;;;;;;15.95;89.05;99574.69;5072839;28;20660;-51
2023/07/02 01:39:07;;;;;;;0.40;0.20;;;;;;;16.05;88.04;99567.78;5072925;28;20505;-51
2023/07/02 01:41:42;;;;;;;0.40;0.20;;;;;;;16.09;87.80;99566.63;5072585;28;20523;-52
2023/07/02 01:44:09;;;;;;;0.40;0.20;;;;;;;16.17;87.21;99561.66;5067417;28;20501;-51
2023/07/02 01:46:35;;;;;;;0.40;0.20;;;;;;;16.20;86.82;99563.28;5071380;28;20466;-51
2023/07/02 01:49:02;;;;;;;0.40;0.20;;;;;;;16.28;86.49;99567.19;5065287;28;20490;-52
2023/07/02 01:51:28;;;;;;;0.40;0.20;;;;;;;16.30;86.57;99559.03;5071987;28;20506;-52
2023/07/02 01:53:55;;;;;;;0.40;0.20;;;;;;;16.24;86.72;99556.75;5072530;28;20534;-52
2023/07/02 01:56:21;;;;;;;0.40;0.20;;;;;;;16.08;87.20;99556.00;5072565;28;20466;-52
2023/07/02 01:58:48;;;;;;;0.40;0.20;;;;;;;16.11;86.99;99566.53;5058743;28;20476;-51
2023/07/02 02:01:14;;;;;;;0.40;0.20;;;;;;;16.09;87.43;99571.13;5069428;28;20808;-51
2023/07/02 02:03:41;;;;;;;0.40;0.20;;;;;;;16.12;87.52;99566.44;5072424;28;20466;-51
2023/07/02 02:06:08;;;;;;;0.40;0.20;;;;;;;16.15;87.03;99566.22;5072510;28;20465;-51
2023/07/02 02:08:35;;;;;;;0.40;0.20;;;;;;;15.74;88.26;99565.28;5072180;28;20469;-51
2023/07/02 02:11:01;;;;;;;0.40;0.20;;;;;;;15.40;89.81;99572.66;5072321;28;20588;-52
2023/07/02 02:13:28;;;;;;;0.40;0.20;;;;;;;15.30;90.62;99576.81;5072253;28;20903;-52
2023/07/02 02:15:54;;;;;;;0.40;0.20;;;;;;;15.18;91.23;99577.53;5067582;28;20497;-51
2023/07/02 02:18:21;;;;;;;0.40;0.20;;;;;;;14.88;92.05;99581.06;5072295;28;20962;-51
2023/07/02 02:20:47;;;;;;;0.40;0.20;;;;;;;14.84;92.55;99584.88;5071959;28;20979;-51
2023/07/02 02:23:14;;;;;;;0.40;0.20;;;;;;;15.18;91.44;99586.44;5068795;28;20943;-51
2023/07/02 02:25:41;;;;;;;0.40;0.20;;;;;;;14.81;91.71;99598.44;5062477;28;20494;-51
2023/07/02 02:28:07;;;;;;;0.40;0.20;;;;;;;14.64;92.30;99599.38;5072367;28;20493;-52
2023/07/02 02:30:34;;;;;;;0.40;0.20;;;;;;;14.60;92.16;99594.28;5071970;28;20563;-52
2023/07/02 02:33:01;;;;;;;0.40;0.20;;;;;;;14.64;91.80;99609.19;5067100;28;20461;-51
2023/07/02 02:35:27;;;;;;;0.40;0.20;;;;;;;14.41;92.30;99605.13;5071895;28;20465;-52
2023/07/02 02:37:54;;;;;;;0.40;0.20;;;;;;;14.34;92.32;99604.59;5071808;28;20473;-52
2023/07/02 02:40:20;;;;;;;0.40;0.20;;;;;;;14.22;92.94;99600.75;5069491;28;20478;-52
2023/07/02 02:42:47;;;;;;;0.40;0.20;;;;;;;14.17;93.11;99605.50;5063479;28;20969;-51
2023/07/02 02:45:13;;;;;;;0.40;0.20;;;;;;;14.08;93.65;99599.78;5071949;28;20469;-51
2023/07/02 02:47:39;;;;;;;0.40;0.20;;;;;;;14.14;93.75;99603.00;5071828;28;20489;-50
2023/07/02 02:50:07;;;;;;;0.40;0.20;;;;;;;14.10;93.46;99595.22;5071462;28;20504;-51
2023/07/02 02:52:33;;;;;;;0.40;0.20;;;;;;;14.12;93.64;99594.22;5069773;28;20462;-51
2023/07/02 02:55:00;;;;;;;0.40;0.20;;;;;;;14.02;94.04;99600.13;5067690;28;20462;-52
2023/07/02 02:57:26;;;;;;;0.40;0.20;;;;;;;14.08;93.30;99594.44;5071682;28;20470;-51
2023/07/02 02:59:52;;;;;;;0.40;0.20;;;;;;;13.45;96.14;99603.13;5071519;28;20852;-51
2023/07/02 03:02:19;;;;;;;0.40;0.20;;;;;;;13.70;94.52;99602.69;5074466;28;20472;-52
2023/07/02 03:04:45;;;;;;;0.40;0.20;;;;;;;13.55;94.64;99603.50;5075452;28;20473;-51
2023/07/02 03:07:12;;;;;;;0.40;0.20;;;;;;;13.33;96.01;99604.59;5071174;28;20462;-52
2023/07/02 03:09:38;;;;;;;0.40;0.20;;;;;;;13.46;95.38;99593.31;5074060;28;20503;-51
2023/07/02 03:12:05;;;;;;;0.40;0.20;;;;;;;13.65;94.81;99596.72;5075823;28;20473;-51
2023/07/02 03:14:32;;;;;;;0.40;0.20;;;;;;;13.76;94.09;99593.50;5075543;28;20548;-51
2023/07/02 03:16:59;;;;;;;0.40;0.20;;;;;;;13.53;95.26;99594.69;5075672;28;20518;-50
2023/07/02 03:19:26;;;;;;;0.40;0.20;;;;;;;13.58;95.00;99596.22;5075154;28;20569;-50
2023/07/02 03:21:52;;;;;;;0.40;0.20;;;;;;;13.64;94.99;99600.34;5073297;28;20548;-50
2023/07/02 03:24:19;;;;;;;0.40;0.20;;;;;;;13.66;95.84;99601.13;5075557;28;20548;-50
2023/07/02 03:26:45;;;;;;;0.40;0.20;;;;;;;13.69;96.11;99600.09;5075595;28;20500;-50
2023/07/02 03:29:12;;;;;;;0.40;0.20;;;;;;;13.85;95.82;99601.03;5075128;28;21029;-51
2023/07/02 03:31:39;;;;;;;0.40;0.20;;;;;;;13.73;96.79;99599.88;5074830;28;20543;-50
2023/07/02 03:34:09;;;;;;;0.40;0.20;;;;;;;13.92;96.25;99605.97;5068882;28;20882;-51
2023/07/02 03:36:37;;;;;;;0.40;0.20;;;;;;;14.04;95.10;99612.47;5071850;28;20944;-51
2023/07/02 03:39:04;;;;;;;0.40;0.20;;;;;;;13.97;95.34;99616.41;5075035;28;20588;-51
2023/07/02 03:41:34;;;;;;;0.40;0.20;;;;;;;14.05;95.18;99614.19;5075095;28;20486;-52
2023/07/02 03:44:01;;;;;;;0.40;0.20;;;;;;;14.04;95.04;99615.13;5074674;28;20461;-52
2023/07/02 03:46:27;;;;;;;0.40;0.20;;;;;;;14.40;93.77;99614.09;5074162;28;20523;-51
2023/07/02 03:48:54;;;;;;;0.40;0.20;;;;;;;14.54;93.41;99626.75;5074409;28;20469;-52
2023/07/02 03:51:20;;;;;;;0.40;0.20;;;;;;;14.16;94.68;99626.97;5074456;28;21041;-52
2023/07/02 03:53:47;;;;;;;0.40;0.20;;;;;;;14.36;94.38;99626.75;5074965;28;20466;-51
2023/07/02 03:56:13;;;;;;;0.40;0.20;;;;;;;14.19;95.05;99625.00;5074711;28;20978;-51
2023/07/02 03:58:40;;;;;;;0.40;0.20;;;;;;;14.32;94.44;99621.66;5074907;28;20469;-51
2023/07/02 04:01:07;;;;;;;0.40;0.20;;;;;;;14.41;94.38;99632.72;5074394;28;20475;-51
2023/07/02 04:03:33;;;;;;;0.40;0.20;;;;;;;14.46;93.63;99629.81;5074844;28;20468;-51
2023/07/02 04:06:00;;;;;;;0.40;0.20;;;;;;;14.40;94.47;99635.50;5061977;28;20474;-50
2023/07/02 04:08:28;;;;;;;0.40;0.20;;;;;;;14.41;94.80;99627.38;5074555;28;21039;-51
2023/07/02 04:10:54;;;;;;;0.40;0.20;;;;;;;14.41;95.16;99637.22;5074308;28;20493;-51
2023/07/02 04:13:21;;;;;;;0.40;0.20;;;;;;;14.04;96.22;99643.66;5066689;28;20459;-51
2023/07/02 04:15:47;;;;;;;0.40;0.20;;;;;;;14.21;96.13;99649.84;5065534;28;20473;-51
2023/07/02 04:18:14;;;;;;;0.40;0.20;;;;;;;14.36;95.19;99645.47;5074539;28;20486;-51
2023/07/02 04:20:40;;;;;;;0.40;0.20;;;;;;;14.35;94.91;99651.75;5071189;28;20557;-51
2023/07/02 04:23:07;;;;;;;0.40;0.20;;;;;;;14.39;94.16;99656.03;5074330;28;20465;-52
2023/07/02 04:25:33;;;;;;;5.90;2.60;;;;;;;14.48;95.06;99655.53;5074368;28;20457;-52
2023/07/02 04:28:20;;;;;;;0.40;0.20;;;;;;;14.28;95.44;99653.06;5074241;28;20470;-52
2023/07/02 04:30:49;;;;;;;0.40;0.20;;;;;;;14.29;95.71;99654.78;5074193;28;20491;-52
2023/07/02 04:33:17;;;;;;;0.40;0.20;;;;;;;14.28;96.24;99654.88;5066528;28;20471;-52
2023/07/02 04:35:43;;;;;;;0.40;0.20;;;;;;;14.58;94.96;99661.25;5071779;28;20472;-52
2023/07/02 04:38:10;;;;;;;0.40;0.20;;;;;;;14.55;95.35;99666.78;5073865;28;20505;-52
2023/07/02 04:40:36;;;;;;;0.40;0.20;;;;;;;14.68;95.34;99666.97;5073704;28;20911;-52
2023/07/02 04:43:03;;;;;;;0.40;0.20;;;;;;;14.74;95.27;99658.56;5072939;28;20466;-55
2023/07/02 04:45:36;;;;;;;0.40;0.20;;;;;;;14.95;94.58;99664.56;5070891;28;20470;-52
2023/07/02 04:48:03;;;;;;;0.40;0.20;;;;;;;15.13;93.96;99663.50;5071815;28;20518;-51
2023/07/02 04:50:30;;;;;;;0.40;0.20;;;;;;;15.38;93.08;99666.47;5073921;28;20489;-52
2023/07/02 04:52:57;;;;;;;0.40;0.20;;;;;;;15.68;92.98;99660.31;5073658;28;20519;-52
2023/07/02 04:55:23;;;;;;;0.40;0.20;;;;;;;15.77;92.07;99670.47;5068221;28;20510;-52
2023/07/02 04:57:50;;;;;;;0.40;0.20;;;;;;;15.86;92.17;99666.38;5067678;28;20534;-52
2023/07/02 05:00:17;;;;;;;0.40;0.20;;;;;;;16.19;90.91;99661.66;5071987;28;20854;-52
2023/07/02 05:02:43;;;;;;;0.40;0.20;;;;;;;16.54;89.69;99671.97;5070157;28;20508;-52
2023/07/02 05:05:09;;;;;;;0.40;0.20;;;;;;;16.54;89.46;99675.53;5073455;28;20466;-52
2023/07/02 05:07:36;;;;;;;0.40;0.20;;;;;;;16.71;89.60;99676.31;5073404;28;20527;-52
2023/07/02 05:10:03;;;;;;;0.40;0.20;;;;;;;16.93;87.86;99678.47;5068770;28;20489;-52
2023/07/02 05:12:30;;;;;;;0.40;0.20;;;;;;;17.02;87.25;99677.91;5073697;28;20500;-52
2023/07/02 05:14:56;;;;;;;0.40;0.20;;;;;;;17.14;87.06;99682.47;5073334;28;20468;-52
2023/07/02 05:17:23;;;;;;;0.40;0.20;;;;;;;17.32;86.11;99677.72;5073466;28;20466;-52
2023/07/02 05:19:49;;;;;;;0.40;0.20;;;;;;;17.40;85.01;99684.28;5063390;28;20568;-51
2023/07/02 05:22:16;;;;;;;0.40;0.20;;;;;;;17.58;84.73;99684.91;5063129;28;20470;-53
2023/07/02 05:24:46;;;;;;;0.40;0.20;;;;;;;17.92;84.08;99685.31;5064524;28;20462;-52
2023/07/02 05:27:12;;;;;;;0.40;0.20;;;;;;;17.93;83.40;99685.22;5066132;28;20527;-51
2023/07/02 05:29:39;;;;;;;0.40;0.20;;;;;;;17.94;83.27;99689.63;5059805;28;20485;-52
2023/07/02 05:32:06;;;;;;;0.40;0.20;;;;;;;18.08;82.30;99685.13;5072241;28;20537;-51
2023/07/02 05:34:33;;;;;;;0.40;0.20;;;;;;;18.38;82.36;99696.47;5066924;28;20468;-52
2023/07/02 05:37:00;;;;;;;0.40;0.20;;;;;;;18.89;78.80;99693.72;5063121;28;20553;-52
2023/07/02 05:39:26;;;;;;;0.40;0.20;;;;;;;18.91;77.63;99691.75;5067303;28;20872;-52
2023/07/02 05:41:53;;;;;;;0.40;0.20;;;;;;;19.06;77.15;99687.97;5066888;28;20519;-52
2023/07/02 05:44:20;;;;;;;0.40;0.20;;;;;;;19.14;76.79;99685.56;5057488;28;20528;-52
2023/07/02 05:46:46;;;;;;;0.40;0.20;;;;;;;19.52;75.21;99692.66;5070660;28;20966;-52
2023/07/02 05:49:13;;;;;;;0.50;0.30;;;;;;;19.89;73.98;99676.41;5071818;28;20486;-52
2023/07/02 05:51:39;;;;;;;0.40;0.30;;;;;;;20.55;70.81;99683.78;5072613;28;20837;-52
2023/07/02 05:54:06;;;;;;;0.50;0.30;;;;;;;20.83;69.87;99686.97;5072704;28;20497;-52
2023/07/02 05:56:33;;;;;;;0.40;0.20;;;;;;;20.53;69.72;99690.28;5062411;28;20554;-52
2023/07/02 05:58:59;;;;;;;0.50;0.20;;;;;;;20.77;69.24;99699.13;5065729;28;20527;-52
2023/07/02 06:01:26;;;;;;;0.50;0.20;;;;;;;20.95;68.51;99692.22;5068431;28;20852;-52
2023/07/02 06:03:52;;;;;;;0.50;0.20;;;;;;;21.08;68.13;99694.81;5071794;28;20488;-52
2023/07/02 06:06:22;;;;;;;0.50;0.40;;;;;;;21.25;67.03;99696.19;5068957;28;20466;-52
2023/07/02 06:08:49;;;;;;;0.50;0.20;;;;;;;21.32;66.73;99699.22;5072518;28;20461;-52
2023/07/02 06:11:15;;;;;;;0.50;0.30;;;;;;;21.53;66.04;99692.91;5072168;28;20436;-51
2023/07/02 06:13:41;;;;;;;0.50;0.30;;;;;;;21.55;65.84;99709.00;5065607;28;20466;-52
2023/07/02 06:16:08;;;;;;;0.50;0.20;;;;;;;21.35;65.41;99699.81;5068988;28;20476;-52
2023/07/02 06:18:34;;;;;;;0.40;0.20;;;;;;;21.41;66.30;99703.88;5067602;28;20852;-52
2023/07/02 06:21:01;;;;;;;0.50;0.20;;;;;;;20.96;66.93;99712.00;5072072;28;20556;-52
2023/07/02 06:23:38;;;;;;;0.40;0.20;;;;;;;21.03;66.61;99712.38;5072352;28;20522;-51
2023/07/02 06:26:05;;;;;;;0.40;0.20;;;;;;;21.04;66.88;99708.69;5070455;28;20480;-52
2023/07/02 06:28:31;;;;;;;0.50;0.20;;;;;;;21.34;65.97;99710.75;5072146;28;20519;-52
2023/07/02 06:30:58;;;;;;;0.40;0.20;;;;;;;21.39;65.22;99706.72;5071661;28;20462;-52
2023/07/02 06:33:24;;;;;;;0.50;0.20;;;;;;;21.15;66.15;99709.56;5061591;28;20433;-52
2023/07/02 06:35:51;;;;;;;0.50;0.30;;;;;;;21.22;65.97;99715.31;5070485;28;20436;-52
2023/07/02 06:38:17;;;;;;;0.50;0.20;;;;;;;21.69;64.74;99711.41;5070603;28;20462;-52
2023/07/02 06:40:44;;;;;;;5.73;2.47;;;;;;;21.64;64.54;99716.31;5071857;28;20581;-52
2023/07/02 06:43:11;;;;;;;0.50;0.20;;;;;;;21.35;65.01;99718.75;5071773;28;20472;-52
2023/07/02 06:45:37;;;;;;;0.50;0.37;;;;;;;21.61;64.75;99713.03;5064296;28;20535;-52
2023/07/02 06:48:05;;;;;;;0.50;0.20;;;;;;;21.41;64.50;99715.56;5070002;28;20568;-52
2023/07/02 06:50:31;;;;;;;0.50;0.20;;;;;;;21.41;64.58;99720.09;5065732;28;20850;-52
2023/07/02 06:52:58;;;;;;;0.50;0.20;;;;;;;21.84;64.03;99714.66;5062061;28;20452;-52
2023/07/02 06:55:24;;;;;;;0.50;0.20;;;;;;;21.88;63.90;99711.56;5063081;28;20475;-52
2023/07/02 06:57:51;;;;;;;0.50;0.20;;;;;;;22.15;63.11;99712.94;5071967;28;20475;-52
2023/07/02 07:00:17;;;;;;;0.50;0.40;;;;;;;21.83;63.06;99721.06;5054774;28;20486;-52
2023/07/02 07:02:44;;;;;;;0.50;0.20;;;;;;;21.82;64.18;99714.81;5064420;28;20475;-52
2023/07/02 07:05:10;;;;;;;0.50;0.20;;;;;;;21.81;63.62;99714.94;5058315;28;20665;-52
2023/07/02 07:07:37;;;;;;;0.50;0.20;;;;;;;21.92;62.70;99714.00;5055700;28;20448;-52
2023/07/02 07:10:04;;;;;;;0.43;0.30;;;;;;;22.14;62.57;99711.22;5055582;28;20521;-52
2023/07/02 07:12:31;;;;;;;0.50;0.30;;;;;;;22.15;62.37;99719.22;5062194;28;20464;-51
2023/07/02 07:14:57;;;;;;;1.77;1.67;;;;;;;22.47;61.99;99719.13;5062382;28;20505;-51
2023/07/02 07:17:24;;;;;;;0.50;0.20;;;;;;;22.24;61.62;99714.00;5065347;28;20532;-52
2023/07/02 07:19:50;;;;;;;0.50;0.20;;;;;;;22.36;61.02;99718.38;5071802;28;20543;-51
2023/07/02 07:22:17;;;;;;;0.50;0.30;;;;;;;22.61;61.47;99712.50;5071384;28;20497;-52
2023/07/02 07:24:43;;;;;;;0.43;0.30;;;;;;;22.61;60.00;99722.47;5071492;28;20497;-52
2023/07/02 07:27:10;;;;;;;1.13;1.13;;;;;;;22.52;59.71;99707.91;5071237;28;20469;-52
2023/07/02 07:29:36;;;;;;;0.50;0.23;;;;;;;22.58;59.71;99710.06;5070608;28;20885;-52
2023/07/02 07:32:03;;;;;;;0.50;0.20;;;;;;;22.71;59.51;99710.69;5065931;28;20485;-51
2023/07/02 07:34:29;;;;;;;0.50;0.23;;;;;;;22.72;58.66;99704.28;5056882;28;20458;-51
2023/07/02 07:36:56;;;;;;;0.50;0.20;;;;;;;22.63;58.79;99709.69;5061773;28;20472;-51
2023/07/02 07:39:22;;;;;;;0.57;0.57;;;;;;;22.94;57.73;99710.56;5071559;28;20550;-51
2023/07/02 07:41:49;;;;;;;0.40;0.23;;;;;;;22.99;57.96;99714.56;5069018;28;20485;-51
2023/07/02 07:44:15;;;;;;;0.50;0.20;;;;;;;22.86;57.16;99713.94;5056902;28;20488;-51
2023/07/02 07:46:42;;;;;;;0.47;0.20;;;;;;;22.94;57.32;99708.72;5059592;28;20489;-51
2023/07/02 07:49:08;;;;;;;0.50;0.30;;;;;;;23.05;56.71;99718.59;5071520;28;20492;-51
2023/07/02 07:51:38;;;;;;;0.47;0.30;;;;;;;23.39;56.71;99712.81;5074758;28;20458;-51
2023/07/02 07:54:05;;;;;;;0.50;0.30;;;;;;;23.41;56.20;99716.25;5074735;28;20446;-52
2023/07/02 07:56:31;;;;;;;0.50;0.30;;;;;;;23.64;54.93;99709.63;5074823;28;20465;-52
2023/07/02 07:58:58;;;;;;;0.50;0.30;;;;;;;23.72;55.28;99715.22;5074837;28;20469;-51
2023/07/02 08:01:26;;;;;;;1.53;1.53;;;;;;;23.53;55.35;99717.84;5074450;28;20909;-51
2023/07/02 08:03:53;;;;;;;0.47;0.20;;;;;;;23.71;54.84;99715.31;5072845;28;20440;-51
2023/07/02 08:06:20;;;;;;;0.50;0.20;;;;;;;23.88;55.13;99714.63;5070070;28;20462;-51
2023/07/02 08:08:46;;;;;;;0.50;0.20;;;;;;;24.17;54.34;99718.19;5074594;28;20548;-51
2023/07/02 08:11:13;;;;;;;0.50;0.20;;;;;;;24.04;53.81;99714.91;5074276;28;20455;-51
2023/07/02 08:13:39;;;;;;;0.50;0.27;;;;;;;24.02;51.89;99735.06;5074551;28;20856;-51
2023/07/02 08:16:06;;;;;;;0.50;0.20;;;;;;;24.14;50.42;99728.50;5074232;28;20440;-51
2023/07/02 08:18:32;;;;;;;0.50;0.30;;;;;;;24.29;50.14;99729.75;5074618;28;20867;-51
2023/07/02 08:20:59;;;;;;;0.50;0.20;;;;;;;23.89;51.08;99738.94;5074129;28;20468;-51
2023/07/02 08:23:25;;;;;;;0.50;0.20;;;;;;;23.89;50.88;99729.94;5069166;28;20466;-52
2023/07/02 08:25:52;;;;;;;0.50;0.20;;;;;;;24.17;50.72;99737.22;5068986;28;20531;-51
2023/07/02 08:28:18;;;;;;;0.50;0.30;;;;;;;24.09;51.20;99725.34;5070127;28;20478;-51
2023/07/02 08:30:45;;;;;;;0.50;0.30;;;;;;;24.48;50.25;99732.47;5067095;28;20499;-52
2023/07/02 08:33:11;;;;;;;0.50;0.30;;;;;;;24.54;49.36;99738.34;5068947;28;20948;-52
2023/07/02 08:35:38;;;;;;;0.50;0.30;;;;;;;24.44;48.98;99728.34;5064796;28;20939;-51
2023/07/02 08:38:04;;;;;;;1.80;0.93;;;;;;;24.40;49.91;99737.78;5074031;28;20446;-51
2023/07/02 08:40:31;;;;;;;0.50;0.30;;;;;;;24.34;49.71;99749.22;5073342;28;20492;-51
2023/07/02 08:42:58;;;;;;;0.50;0.30;;;;;;;24.17;49.42;99739.91;5072422;28;20480;-51
2023/07/02 08:45:27;;;;;;;0.50;0.30;;;;;;;23.91;51.15;99752.34;5071636;28;20554;-52
2023/07/02 08:47:56;;;;;;;0.87;0.87;;;;;;;24.19;50.49;99750.63;5073145;28;20472;-52
2023/07/02 08:50:23;;;;;;;0.50;0.20;;;;;;;24.23;49.92;99746.63;5073777;28;20456;-52
2023/07/02 08:52:50;;;;;;;0.50;0.30;;;;;;;24.59;49.22;99744.19;5070712;28;20464;-52
2023/07/02 08:55:16;;;;;;;0.50;0.27;;;;;;;24.05;50.00;99753.78;5065452;28;20504;-50
2023/07/02 08:57:52;;;;;;;0.50;0.30;;;;;;;23.60;51.31;99759.75;5074010;28;20497;-50
2023/07/02 09:00:19;;;;;;;0.50;0.40;;;;;;;23.84;50.31;99760.19;5073435;28;20577;-50
2023/07/02 09:02:46;;;;;;;0.50;0.30;;;;;;;24.05;49.88;99754.66;5073650;28;20464;-50
2023/07/02 09:05:13;;;;;;;0.50;0.23;;;;;;;24.07;48.89;99757.22;5063859;28;20519;-50
2023/07/02 09:07:50;;;;;;;0.50;0.20;;;;;;;24.21;48.68;99765.78;5074106;28;20468;-50
2023/07/02 09:10:30;;;;;;;0.50;0.33;;;;;;;24.52;49.88;99763.78;5065685;28;20482;-50
2023/07/02 09:13:07;;;;;;;0.50;0.30;;;;;;;24.36;49.63;99752.66;5065849;28;20454;-50
2023/07/02 09:15:38;;;;;;;0.50;0.30;;;;;;;24.58;49.42;99758.78;5067349;28;20439;-50
2023/07/02 09:18:21;;;;;;;0.50;0.30;;;;;;;24.38;47.22;99766.09;5073364;28;20476;-51
2023/07/02 09:20:53;;;;;;;0.50;0.20;;;;;;;24.36;47.83;99773.53;5061305;28;21016;-50
2023/07/02 09:23:20;;;;;;;0.50;0.30;;;;;;;24.42;48.66;99775.69;5072622;28;20462;-51
2023/07/02 09:25:47;;;;;;;0.50;0.30;;;;;;;24.63;48.72;99773.63;5065785;28;20501;-51
2023/07/02 09:28:22;;;;;;;1.23;1.13;;;;;;;24.94;47.75;99771.53;5072042;28;20483;-50
2023/07/02 09:30:54;;;;;;;0.50;0.30;;;;;;;24.75;47.40;99772.47;5073269;28;20527;-51
2023/07/02 09:33:25;;;;;;;0.50;0.30;;;;;;;24.87;47.35;99783.16;5066193;28;20438;-50
2023/07/02 09:35:52;;;;;;;0.50;0.30;;;;;;;24.78;47.51;99779.47;5071813;28;20465;-50
2023/07/02 09:38:21;;;;;;;0.50;0.40;;;;;;;24.94;46.46;99774.25;5072969;28;20444;-50
2023/07/02 09:40:53;;;;;;;0.50;0.20;;;;;;;25.13;45.79;99783.41;5072904;28;20816;-51
2023/07/02 09:43:20;;;;;;;0.50;0.30;;;;;;;25.30;46.27;99780.72;5065956;28;20475;-50
2023/07/02 09:45:49;;;;;;;4.00;2.23;;;;;;;24.68;45.91;99778.66;5072702;28;20973;-50
2023/07/02 09:48:17;;;;;;;0.50;0.30;;;;;;;24.37;46.69;99769.81;5062060;28;20508;-51
2023/07/02 09:50:46;;;;;;;0.50;0.40;;;;;;;24.10;47.65;99792.22;5063407;28;20456;-50
2023/07/02 09:53:13;;;;;;;0.50;0.30;;;;;;;23.67;48.35;99789.91;5072407;28;20440;-51
2023/07/02 09:55:42;;;;;;;0.50;0.20;;;;;;;23.60;48.75;99789.59;5072582;28;21165;-50
2023/07/02 09:58:10;;;;;;;0.50;0.30;;;;;;;24.04;48.64;99782.81;5072307;28;20890;-50
2023/07/02 10:00:38;;;;;;;0.50;0.20;;;;;;;24.29;48.21;99784.09;5072403;28;20970;-50
2023/07/02 10:03:04;;;;;;;0.50;0.23;;;;;;;23.97;47.66;99791.66;5072329;28;20476;-50
2023/07/02 10:05:32;;;;;;;0.50;0.20;;;;;;;23.74;48.54;99791.06;5072329;28;20493;-50
2023/07/02 10:08:13;;;;;;;0.50;0.23;;;;;;;23.69;48.42;99788.75;5072270;28;20549;-51
2023/07/02 10:10:40;;;;;;;0.50;0.20;;;;;;;23.41;48.54;99789.50;5065668;28;20528;-50
2023/07/02 10:13:06;;;;;;;0.50;0.20;;;;;;;23.53;47.26;99796.53;5069479;28;20476;-50
2023/07/02 10:15:37;;;;;;;0.50;0.30;;;;;;;23.86;46.07;99788.09;5072659;28;20536;-51
2023/07/02 10:18:05;;;;;;;0.50;0.20;;;;;;;23.50;47.43;99786.81;5072494;28;20523;-50
2023/07/02 10:20:39;;;;;;;0.50;0.20;;;;;;;23.26;47.85;99792.59;5072734;28;20568;-50
2023/07/02 10:23:07;;;;;;;0.50;0.30;;;;;;;23.38;48.73;99793.34;5072010;28;20862;-50
2023/07/02 10:25:38;;;;;;;0.50;0.20;;;;;;;23.45;48.62;99793.69;5072412;28;20485;-51
2023/07/02 10:28:15;;;;;;;1.43;1.33;;;;;;;24.06;48.43;99785.38;5072227;28;20444;-50
2023/07/02 10:30:42;;;;;;;0.50;0.20;;;;;;;24.34;45.33;99783.69;5072199;28;20558;-51
2023/07/02 10:33:12;;;;;;;1.43;1.27;;;;;;;25.12;42.94;99787.13;5069516;28;20433;-51
2023/07/02 10:35:46;;;;;;;0.50;0.30;;;;;;;25.46;42.39;99790.09;5069126;28;20918;-51
2023/07/02 10:38:17;;;;;;;0.50;0.30;;;;;;;25.20;42.95;99787.22;5068052;28;20473;-52
2023/07/02 10:40:44;;;;;;;0.50;0.27;;;;;;;25.63;43.13;99783.84;5071169;28;20521;-51
2023/07/02 10:43:10;;;;;;;0.77;0.77;;;;;;;25.56;43.46;99786.34;5064356;28;20497;-51
2023/07/02 10:45:37;;;;;;;0.50;0.20;;;;;;;25.66;43.83;99780.84;5064097;28;20470;-51
2023/07/02 10:48:08;;;;;;;0.50;0.30;;;;;;;25.08;44.69;99792.00;5072049;28;20513;-50
2023/07/02 10:50:34;;;;;;;0.50;0.30;;;;;;;25.63;43.89;99789.28;5063844;28;21036;-50
2023/07/02 10:53:02;;;;;;;0.50;0.20;;;;;;;25.45;43.86;99785.69;5071727;28;20485;-50
2023/07/02 10:55:30;;;;;;;0.50;0.30;;;;;;;25.85;43.27;99779.88;5071793;28;20918;-51
2023/07/02 10:58:05;;;;;;;0.50;0.30;;;;;;;25.24;43.09;99781.34;5071683;28;20959;-50
2023/07/02 11:00:32;;;;;;;0.50;0.30;;;;;;;25.31;42.21;99781.59;5071996;28;20451;-50
2023/07/02 11:02:59;;;;;;;0.50;0.30;;;;;;;24.90;42.95;99794.59;5071375;28;20555;-50
2023/07/02 11:05:27;;;;;;;0.50;0.30;;;;;;;24.73;44.59;99785.34;5068602;28;20947;-51
2023/07/02 11:08:08;;;;;;;0.50;0.30;;;;;;;25.07;43.77;99784.84;5065787;28;20506;-51
2023/07/02 11:10:34;;;;;;;0.50;0.30;;;;;;;24.69;44.63;99792.09;5072107;28;20534;-50
2023/07/02 11:13:11;;;;;;;0.50;0.20;;;;;;;24.29;45.97;99794.09;5071232;28;20464;-50
2023/07/02 11:15:38;;;;;;;0.50;0.40;;;;;;;24.25;47.28;99793.50;5066353;28;20519;-50
2023/07/02 11:18:12;;;;;;;0.50;0.23;;;;;;;24.18;47.86;99792.38;5071449;28;20966;-50
2023/07/02 11:20:40;;;;;;;0.50;0.30;;;;;;;23.86;47.62;99798.09;5071565;28;20486;-50
2023/07/02 11:23:22;;;;;;;0.50;0.30;;;;;;;23.86;48.02;99792.66;5073935;28;20493;-50
2023/07/02 11:25:59;;;;;;;0.50;0.30;;;;;;;23.92;47.21;99792.94;5075772;28;20461;-51
2023/07/02 11:28:27;;;;;;;0.50;0.30;;;;;;;24.58;44.32;99783.25;5074596;28;20986;-50
2023/07/02 11:30:54;;;;;;;0.67;0.67;;;;;;;25.06;42.04;99780.41;5070737;28;20456;-51
2023/07/02 11:33:37;;;;;;;0.50;0.20;;;;;;;24.88;44.91;99785.72;5071545;28;20437;-50
2023/07/02 11:36:05;;;;;;;0.50;0.20;;;;;;;24.69;44.25;99786.66;5071183;28;20955;-51